Aviation Digital Data Service (ADDS)

Output produced by METARs form (0944 UTC 19 November 2018)
found at http://www.aviationweather.gov/metar/data/
 
KMKT 190520Z 1906/2006 18006KT P6SM BKN150 
     FM191100 28005KT P6SM BKN050 
     FM191300 31010KT P6SM BKN030 
     FM191500 34010G16KT P6SM BKN025 
     FM192100 34010KT P6SM FEW020
       
KRST 190520Z 1906/2006 20012KT P6SM OVC140 
     FM191500 33013KT P6SM OVC015
       
KMSP 190841Z 1909/2012 VRB03KT P6SM VCSH OVC090 
     FM191200 35006KT P6SM SCT020 OVC070 
     FM191700 35010G16KT P6SM OVC020 
     FM192100 35010KT P6SM BKN035 
     FM200000 34009KT P6SM FEW030